sensor_id;sensor_type;location;lat;lon;timestamp;temperature;humidity
23116;DHT22;11727;52.134;5.052;2022-09-12T00:00:38;16.50;99.90
23116;DHT22;11727;52.134;5.052;2022-09-12T00:03:04;16.50;99.90
23116;DHT22;11727;52.134;5.052;2022-09-12T00:05:29;16.50;99.90
23116;DHT22;11727;52.134;5.052;2022-09-12T00:07:55;16.50;99.90
23116;DHT22;11727;52.134;5.052;2022-09-12T00:10:21;16.50;99.90
23116;DHT22;11727;52.134;5.052;2022-09-12T00:12:46;16.40;99.90
23116;DHT22;11727;52.134;5.052;2022-09-12T00:15:12;16.40;99.90
23116;DHT22;11727;52.134;5.052;2022-09-12T00:17:38;16.40;99.90
23116;DHT22;11727;52.134;5.052;2022-09-12T00:20:06;16.40;99.90
23116;DHT22;11727;52.134;5.052;2022-09-12T00:22:33;16.40;99.90
23116;DHT22;11727;52.134;5.052;2022-09-12T00:24:59;16.40;99.90
23116;DHT22;11727;52.134;5.052;2022-09-12T00:27:25;16.40;99.90
23116;DHT22;11727;52.134;5.052;2022-09-12T00:29:51;16.40;99.90
23116;DHT22;11727;52.134;5.052;2022-09-12T00:32:16;16.40;99.90
23116;DHT22;11727;52.134;5.052;2022-09-12T00:34:42;16.30;99.90
23116;DHT22;11727;52.134;5.052;2022-09-12T00:37:08;16.30;99.90
23116;DHT22;11727;52.134;5.052;2022-09-12T00:39:33;16.30;99.90
23116;DHT22;11727;52.134;5.052;2022-09-12T00:41:59;16.30;99.90
23116;DHT22;11727;52.134;5.052;2022-09-12T00:51:51;16.30;99.90
23116;DHT22;11727;52.134;5.052;2022-09-12T00:54:20;16.20;99.90
23116;DHT22;11727;52.134;5.052;2022-09-12T00:56:48;16.20;99.90
23116;DHT22;11727;52.134;5.052;2022-09-12T00:59:24;16.20;99.90
23116;DHT22;11727;52.134;5.052;2022-09-12T01:01:52;16.20;99.90
23116;DHT22;11727;52.134;5.052;2022-09-12T01:04:21;16.20;99.90
23116;DHT22;11727;52.134;5.052;2022-09-12T01:06:49;16.20;99.90
23116;DHT22;11727;52.134;5.052;2022-09-12T01:09:18;16.10;99.90
23116;DHT22;11727;52.134;5.052;2022-09-12T01:11:45;16.10;99.90
23116;DHT22;11727;52.134;5.052;2022-09-12T01:14:14;16.10;99.90
23116;DHT22;11727;52.134;5.052;2022-09-12T01:16:40;16.10;99.90
23116;DHT22;11727;52.134;5.052;2022-09-12T01:43:56;15.90;99.90
23116;DHT22;11727;52.134;5.052;2022-09-12T01:52:20;15.80;99.90
23116;DHT22;11727;52.134;5.052;2022-09-12T01:54:52;15.80;99.90
23116;DHT22;11727;52.134;5.052;2022-09-12T01:57:26;15.80;99.90
23116;DHT22;11727;52.134;5.052;2022-09-12T01:59:58;15.80;99.90
23116;DHT22;11727;52.134;5.052;2022-09-12T02:02:30;15.80;99.90
23116;DHT22;11727;52.134;5.052;2022-09-12T02:07:52;15.80;99.90
23116;DHT22;11727;52.134;5.052;2022-09-12T02:10:24;15.80;99.90
23116;DHT22;11727;52.134;5.052;2022-09-12T02:12:57;15.80;99.90
23116;DHT22;11727;52.134;5.052;2022-09-12T02:15:33;15.80;99.90
23116;DHT22;11727;52.134;5.052;2022-09-12T02:18:04;15.80;99.90
23116;DHT22;11727;52.134;5.052;2022-09-12T02:20:33;15.80;99.90
23116;DHT22;11727;52.134;5.052;2022-09-12T02:23:03;15.70;99.90
23116;DHT22;11727;52.134;5.052;2022-09-12T02:25:30;15.80;99.90
23116;DHT22;11727;52.134;5.052;2022-09-12T02:28:02;15.70;99.90
23116;DHT22;11727;52.134;5.052;2022-09-12T02:30:36;15.80;99.90
23116;DHT22;11727;52.134;5.052;2022-09-12T02:33:19;15.80;99.90
23116;DHT22;11727;52.134;5.052;2022-09-12T02:36:09;15.70;99.90
23116;DHT22;11727;52.134;5.052;2022-09-12T02:38:43;15.70;99.90
23116;DHT22;11727;52.134;5.052;2022-09-12T02:41:11;15.70;99.90
23116;DHT22;11727;52.134;5.052;2022-09-12T02:43:38;15.70;99.90
23116;DHT22;11727;52.134;5.052;2022-09-12T02:46:07;15.70;99.90
23116;DHT22;11727;52.134;5.052;2022-09-12T02:48:37;15.70;99.90
23116;DHT22;11727;52.134;5.052;2022-09-12T02:51:05;15.60;99.90
23116;DHT22;11727;52.134;5.052;2022-09-12T02:53:30;15.70;99.90
23116;DHT22;11727;52.134;5.052;2022-09-12T02:55:56;15.70;99.90
23116;DHT22;11727;52.134;5.052;2022-09-12T02:58:26;15.70;99.90
23116;DHT22;11727;52.134;5.052;2022-09-12T03:04:45;15.70;99.90
23116;DHT22;11727;52.134;5.052;2022-09-12T03:07:31;15.70;99.90
23116;DHT22;11727;52.134;5.052;2022-09-12T03:15:58;15.60;99.90
23116;DHT22;11727;52.134;5.052;2022-09-12T03:24:26;15.60;99.90
23116;DHT22;11727;52.134;5.052;2022-09-12T03:26:56;15.60;99.90
23116;DHT22;11727;52.134;5.052;2022-09-12T03:29:24;15.60;99.90
23116;DHT22;11727;52.134;5.052;2022-09-12T03:31:55;15.60;99.90
23116;DHT22;11727;52.134;5.052;2022-09-12T03:34:23;15.60;99.90
23116;DHT22;11727;52.134;5.052;2022-09-12T03:36:49;15.60;99.90
23116;DHT22;11727;52.134;5.052;2022-09-12T03:39:15;15.60;99.90
23116;DHT22;11727;52.134;5.052;2022-09-12T03:41:41;15.60;99.90
23116;DHT22;11727;52.134;5.052;2022-09-12T03:44:07;15.70;99.90
23116;DHT22;11727;52.134;5.052;2022-09-12T03:46:33;15.60;99.90
23116;DHT22;11727;52.134;5.052;2022-09-12T03:48:58;15.60;99.90
23116;DHT22;11727;52.134;5.052;2022-09-12T03:51:24;15.60;99.90
23116;DHT22;11727;52.134;5.052;2022-09-12T03:53:49;15.60;99.90
23116;DHT22;11727;52.134;5.052;2022-09-12T03:56:15;15.70;99.90
23116;DHT22;11727;52.134;5.052;2022-09-12T03:58:41;15.70;99.90
23116;DHT22;11727;52.134;5.052;2022-09-12T04:01:14;15.70;99.90
23116;DHT22;11727;52.134;5.052;2022-09-12T04:03:45;15.70;99.90
23116;DHT22;11727;52.134;5.052;2022-09-12T04:06:13;15.60;99.90
23116;DHT22;11727;52.134;5.052;2022-09-12T04:08:40;15.70;99.90
23116;DHT22;11727;52.134;5.052;2022-09-12T04:11:09;15.70;99.90
23116;DHT22;11727;52.134;5.052;2022-09-12T04:13:36;15.70;99.90
23116;DHT22;11727;52.134;5.052;2022-09-12T04:16:03;15.70;99.90
23116;DHT22;11727;52.134;5.052;2022-09-12T04:18:29;15.70;99.90
23116;DHT22;11727;52.134;5.052;2022-09-12T04:20:55;15.70;99.90
23116;DHT22;11727;52.134;5.052;2022-09-12T04:23:21;15.70;99.90
23116;DHT22;11727;52.134;5.052;2022-09-12T04:25:54;15.70;99.90
23116;DHT22;11727;52.134;5.052;2022-09-12T04:28:20;15.70;99.90
23116;DHT22;11727;52.134;5.052;2022-09-12T04:30:45;15.70;99.90
23116;DHT22;11727;52.134;5.052;2022-09-12T04:33:12;15.70;99.90
23116;DHT22;11727;52.134;5.052;2022-09-12T04:35:38;15.70;99.90
23116;DHT22;11727;52.134;5.052;2022-09-12T04:38:03;15.60;99.90
23116;DHT22;11727;52.134;5.052;2022-09-12T04:40:30;15.60;99.90
23116;DHT22;11727;52.134;5.052;2022-09-12T04:42:55;15.60;99.90
23116;DHT22;11727;52.134;5.052;2022-09-12T04:45:22;15.60;99.90
23116;DHT22;11727;52.134;5.052;2022-09-12T04:47:48;15.60;99.90
23116;DHT22;11727;52.134;5.052;2022-09-12T04:50:13;15.60;99.90
23116;DHT22;11727;52.134;5.052;2022-09-12T04:52:42;15.70;99.90
23116;DHT22;11727;52.134;5.052;2022-09-12T04:55:08;15.70;99.90
23116;DHT22;11727;52.134;5.052;2022-09-12T04:57:34;15.70;99.90
23116;DHT22;11727;52.134;5.052;2022-09-12T05:00:00;15.70;99.90
23116;DHT22;11727;52.134;5.052;2022-09-12T05:02:26;15.70;99.90
23116;DHT22;11727;52.134;5.052;2022-09-12T05:04:52;15.70;99.90
23116;DHT22;11727;52.134;5.052;2022-09-12T05:07:18;15.70;99.90
23116;DHT22;11727;52.134;5.052;2022-09-12T05:09:44;15.60;99.90
23116;DHT22;11727;52.134;5.052;2022-09-12T05:12:10;15.70;99.90
23116;DHT22;11727;52.134;5.052;2022-09-12T05:14:36;15.60;99.90
23116;DHT22;11727;52.134;5.052;2022-09-12T05:17:03;15.70;99.90
23116;DHT22;11727;52.134;5.052;2022-09-12T05:19:31;15.70;99.90
23116;DHT22;11727;52.134;5.052;2022-09-12T05:21:57;15.60;99.90
23116;DHT22;11727;52.134;5.052;2022-09-12T05:24:23;15.70;99.90
23116;DHT22;11727;52.134;5.052;2022-09-12T05:26:49;15.70;99.90
23116;DHT22;11727;52.134;5.052;2022-09-12T05:29:14;15.70;99.90
23116;DHT22;11727;52.134;5.052;2022-09-12T05:31:40;15.70;99.90
23116;DHT22;11727;52.134;5.052;2022-09-12T05:34:06;15.70;99.90
23116;DHT22;11727;52.134;5.052;2022-09-12T05:36:35;15.70;99.90
23116;DHT22;11727;52.134;5.052;2022-09-12T05:39:02;15.70;99.90
23116;DHT22;11727;52.134;5.052;2022-09-12T05:41:29;15.70;99.90
23116;DHT22;11727;52.134;5.052;2022-09-12T05:43:57;15.70;99.90
23116;DHT22;11727;52.134;5.052;2022-09-12T05:46:24;15.70;99.90
23116;DHT22;11727;52.134;5.052;2022-09-12T05:48:50;15.70;99.90
23116;DHT22;11727;52.134;5.052;2022-09-12T05:51:17;15.70;99.90
23116;DHT22;11727;52.134;5.052;2022-09-12T05:53:49;15.60;99.90
23116;DHT22;11727;52.134;5.052;2022-09-12T05:56:18;15.70;99.90
23116;DHT22;11727;52.134;5.052;2022-09-12T05:58:47;15.70;99.90
23116;DHT22;11727;52.134;5.052;2022-09-12T06:01:17;15.70;99.90
23116;DHT22;11727;52.134;5.052;2022-09-12T06:03:48;15.80;99.90
23116;DHT22;11727;52.134;5.052;2022-09-12T06:06:15;15.80;99.90
23116;DHT22;11727;52.134;5.052;2022-09-12T06:08:43;15.80;99.90
23116;DHT22;11727;52.134;5.052;2022-09-12T06:11:11;15.80;99.90
23116;DHT22;11727;52.134;5.052;2022-09-12T06:13:38;15.90;99.90
23116;DHT22;11727;52.134;5.052;2022-09-12T06:16:12;15.90;99.90
23116;DHT22;11727;52.134;5.052;2022-09-12T06:18:39;15.90;99.90
23116;DHT22;11727;52.134;5.052;2022-09-12T06:21:10;15.90;99.90
23116;DHT22;11727;52.134;5.052;2022-09-12T06:23:38;16.00;99.90
23116;DHT22;11727;52.134;5.052;2022-09-12T06:26:05;16.00;99.90
23116;DHT22;11727;52.134;5.052;2022-09-12T06:28:31;16.00;99.90
23116;DHT22;11727;52.134;5.052;2022-09-12T06:33:30;16.10;99.90
23116;DHT22;11727;52.134;5.052;2022-09-12T06:36:05;16.20;99.90
23116;DHT22;11727;52.134;5.052;2022-09-12T06:38:31;16.20;99.90
23116;DHT22;11727;52.134;5.052;2022-09-12T06:40:57;16.30;99.90
23116;DHT22;11727;52.134;5.052;2022-09-12T06:43:25;16.40;99.90
23116;DHT22;11727;52.134;5.052;2022-09-12T06:45:51;16.50;99.90
23116;DHT22;11727;52.134;5.052;2022-09-12T06:48:16;16.50;99.90
23116;DHT22;11727;52.134;5.052;2022-09-12T06:50:42;16.70;99.90
23116;DHT22;11727;52.134;5.052;2022-09-12T06:53:08;16.80;99.90
23116;DHT22;11727;52.134;5.052;2022-09-12T06:55:34;16.90;99.90
23116;DHT22;11727;52.134;5.052;2022-09-12T06:58:00;17.00;99.90
23116;DHT22;11727;52.134;5.052;2022-09-12T07:00:26;17.10;99.90
23116;DHT22;11727;52.134;5.052;2022-09-12T07:02:54;17.20;99.90
23116;DHT22;11727;52.134;5.052;2022-09-12T07:05:23;17.40;99.90
23116;DHT22;11727;52.134;5.052;2022-09-12T07:07:48;17.50;99.90
23116;DHT22;11727;52.134;5.052;2022-09-12T07:10:14;17.50;99.90
23116;DHT22;11727;52.134;5.052;2022-09-12T07:12:40;17.60;99.90
23116;DHT22;11727;52.134;5.052;2022-09-12T07:15:09;17.60;99.90
23116;DHT22;11727;52.134;5.052;2022-09-12T07:17:34;17.80;99.90
23116;DHT22;11727;52.134;5.052;2022-09-12T07:20:00;17.90;99.90
23116;DHT22;11727;52.134;5.052;2022-09-12T07:22:26;17.90;99.90
23116;DHT22;11727;52.134;5.052;2022-09-12T07:24:52;18.00;99.90
23116;DHT22;11727;52.134;5.052;2022-09-12T07:27:18;18.10;99.90
23116;DHT22;11727;52.134;5.052;2022-09-12T07:29:43;18.20;99.90
23116;DHT22;11727;52.134;5.052;2022-09-12T07:32:11;18.30;99.90
23116;DHT22;11727;52.134;5.052;2022-09-12T07:34:36;18.40;99.90
23116;DHT22;11727;52.134;5.052;2022-09-12T07:37:02;18.50;99.90
23116;DHT22;11727;52.134;5.052;2022-09-12T07:39:28;18.60;99.90
23116;DHT22;11727;52.134;5.052;2022-09-12T07:41:53;18.60;99.90
23116;DHT22;11727;52.134;5.052;2022-09-12T07:44:19;18.70;99.90
23116;DHT22;11727;52.134;5.052;2022-09-12T07:46:46;18.80;99.90
23116;DHT22;11727;52.134;5.052;2022-09-12T07:49:11;18.80;99.90
23116;DHT22;11727;52.134;5.052;2022-09-12T07:51:37;18.90;99.90
23116;DHT22;11727;52.134;5.052;2022-09-12T07:54:07;19.00;99.90
23116;DHT22;11727;52.134;5.052;2022-09-12T07:56:33;19.10;99.90
23116;DHT22;11727;52.134;5.052;2022-09-12T07:58:59;19.30;99.90
23116;DHT22;11727;52.134;5.052;2022-09-12T08:01:25;19.30;99.90
23116;DHT22;11727;52.134;5.052;2022-09-12T08:03:55;19.50;99.90
23116;DHT22;11727;52.134;5.052;2022-09-12T08:06:23;19.60;99.90
23116;DHT22;11727;52.134;5.052;2022-09-12T08:08:49;19.80;99.90
23116;DHT22;11727;52.134;5.052;2022-09-12T08:11:18;19.90;99.90
23116;DHT22;11727;52.134;5.052;2022-09-12T08:13:44;20.10;99.90
23116;DHT22;11727;52.134;5.052;2022-09-12T08:16:13;20.30;99.90
23116;DHT22;11727;52.134;5.052;2022-09-12T08:18:39;20.40;99.90
23116;DHT22;11727;52.134;5.052;2022-09-12T08:21:09;20.50;99.90
23116;DHT22;11727;52.134;5.052;2022-09-12T08:23:35;20.70;99.90
23116;DHT22;11727;52.134;5.052;2022-09-12T08:26:03;20.80;99.90
23116;DHT22;11727;52.134;5.052;2022-09-12T08:28:29;20.90;99.90
23116;DHT22;11727;52.134;5.052;2022-09-12T08:31:06;20.90;99.90
23116;DHT22;11727;52.134;5.052;2022-09-12T08:33:32;21.00;99.90
23116;DHT22;11727;52.134;5.052;2022-09-12T08:36:16;21.00;99.90
23116;DHT22;11727;52.134;5.052;2022-09-12T08:38:44;21.10;99.90
23116;DHT22;11727;52.134;5.052;2022-09-12T08:41:37;21.30;99.90
23116;DHT22;11727;52.134;5.052;2022-09-12T08:52:38;21.50;99.90
23116;DHT22;11727;52.134;5.052;2022-09-12T08:55:15;21.50;99.90
23116;DHT22;11727;52.134;5.052;2022-09-12T08:57:47;21.50;99.90
23116;DHT22;11727;52.134;5.052;2022-09-12T09:00:13;21.60;99.90
23116;DHT22;11727;52.134;5.052;2022-09-12T09:08:02;21.60;99.90
23116;DHT22;11727;52.134;5.052;2022-09-12T09:11:20;21.70;99.90
23116;DHT22;11727;52.134;5.052;2022-09-12T09:13:41;21.70;99.90
23116;DHT22;11727;52.134;5.052;2022-09-12T09:16:30;21.70;99.90
23116;DHT22;11727;52.134;5.052;2022-09-12T09:19:01;21.80;99.90
23116;DHT22;11727;52.134;5.052;2022-09-12T09:24:09;21.90;99.90
23116;DHT22;11727;52.134;5.052;2022-09-12T09:26:46;21.90;99.90
23116;DHT22;11727;52.134;5.052;2022-09-12T09:31:40;21.90;99.90
23116;DHT22;11727;52.134;5.052;2022-09-12T09:34:19;21.90;99.90
23116;DHT22;11727;52.134;5.052;2022-09-12T09:36:50;21.80;99.90
23116;DHT22;11727;52.134;5.052;2022-09-12T09:42:08;21.80;99.90
23116;DHT22;11727;52.134;5.052;2022-09-12T09:44:35;21.80;99.90
23116;DHT22;11727;52.134;5.052;2022-09-12T09:47:02;21.90;99.90
23116;DHT22;11727;52.134;5.052;2022-09-12T09:49:30;22.00;99.90
23116;DHT22;11727;52.134;5.052;2022-09-12T09:51:58;22.10;99.90
23116;DHT22;11727;52.134;5.052;2022-09-12T09:54:27;22.20;99.90
23116;DHT22;11727;52.134;5.052;2022-09-12T09:56:55;22.40;99.90
23116;DHT22;11727;52.134;5.052;2022-09-12T09:59:29;22.60;99.90
23116;DHT22;11727;52.134;5.052;2022-09-12T10:02:19;22.70;99.90
23116;DHT22;11727;52.134;5.052;2022-09-12T10:04:55;22.80;99.90
23116;DHT22;11727;52.134;5.052;2022-09-12T10:07:22;22.90;99.90
23116;DHT22;11727;52.134;5.052;2022-09-12T10:10:17;23.10;99.90
23116;DHT22;11727;52.134;5.052;2022-09-12T10:12:43;23.20;99.90
23116;DHT22;11727;52.134;5.052;2022-09-12T10:15:20;23.20;99.90
23116;DHT22;11727;52.134;5.052;2022-09-12T10:17:48;23.30;99.90
23116;DHT22;11727;52.134;5.052;2022-09-12T10:20:39;23.40;99.90
23116;DHT22;11727;52.134;5.052;2022-09-12T10:23:22;23.40;99.90
23116;DHT22;11727;52.134;5.052;2022-09-12T10:25:56;23.30;99.90
23116;DHT22;11727;52.134;5.052;2022-09-12T10:28:35;23.40;99.90
23116;DHT22;11727;52.134;5.052;2022-09-12T10:31:02;23.40;99.90
23116;DHT22;11727;52.134;5.052;2022-09-12T10:33:29;23.50;99.90
23116;DHT22;11727;52.134;5.052;2022-09-12T10:36:02;23.50;99.90
23116;DHT22;11727;52.134;5.052;2022-09-12T10:38:30;23.60;99.90
23116;DHT22;11727;52.134;5.052;2022-09-12T10:40:58;23.60;99.90
23116;DHT22;11727;52.134;5.052;2022-09-12T10:43:37;23.70;99.90
23116;DHT22;11727;52.134;5.052;2022-09-12T10:48:41;23.90;99.90
23116;DHT22;11727;52.134;5.052;2022-09-12T10:51:27;24.00;99.90
23116;DHT22;11727;52.134;5.052;2022-09-12T10:53:56;24.00;99.90
23116;DHT22;11727;52.134;5.052;2022-09-12T10:56:29;24.00;99.90
23116;DHT22;11727;52.134;5.052;2022-09-12T11:12:37;23.90;99.90
23116;DHT22;11727;52.134;5.052;2022-09-12T11:17:57;23.90;99.90
23116;DHT22;11727;52.134;5.052;2022-09-12T11:24:48;24.00;99.90
23116;DHT22;11727;52.134;5.052;2022-09-12T11:30:09;24.00;99.90
23116;DHT22;11727;52.134;5.052;2022-09-12T11:35:27;23.90;99.90
23116;DHT22;11727;52.134;5.052;2022-09-12T11:40:53;23.90;99.90
23116;DHT22;11727;52.134;5.052;2022-09-12T11:45:52;23.90;99.90
23116;DHT22;11727;52.134;5.052;2022-09-12T11:50:58;24.10;99.90
23116;DHT22;11727;52.134;5.052;2022-09-12T11:53:28;24.20;99.90
23116;DHT22;11727;52.134;5.052;2022-09-12T11:56:06;24.20;99.90
23116;DHT22;11727;52.134;5.052;2022-09-12T11:58:35;24.20;99.90
23116;DHT22;11727;52.134;5.052;2022-09-12T12:03:46;24.20;99.90
23116;DHT22;11727;52.134;5.052;2022-09-12T12:06:17;24.30;99.90
23116;DHT22;11727;52.134;5.052;2022-09-12T12:08:47;24.30;99.90
23116;DHT22;11727;52.134;5.052;2022-09-12T12:11:28;24.40;99.90
23116;DHT22;11727;52.134;5.052;2022-09-12T12:13:58;24.40;99.90
23116;DHT22;11727;52.134;5.052;2022-09-12T12:16:36;24.50;99.90
23116;DHT22;11727;52.134;5.052;2022-09-12T12:19:31;24.60;99.90
23116;DHT22;11727;52.134;5.052;2022-09-12T12:22:15;24.60;99.90
23116;DHT22;11727;52.134;5.052;2022-09-12T12:38:01;24.70;99.90
23116;DHT22;11727;52.134;5.052;2022-09-12T12:40:29;24.70;99.90
23116;DHT22;11727;52.134;5.052;2022-09-12T12:47:58;24.80;99.90
23116;DHT22;11727;52.134;5.052;2022-09-12T12:50:27;24.90;99.90
23116;DHT22;11727;52.134;5.052;2022-09-12T12:52:58;24.90;99.90
23116;DHT22;11727;52.134;5.052;2022-09-12T12:55:46;24.90;99.90
23116;DHT22;11727;52.134;5.052;2022-09-12T12:58:32;25.00;99.90
23116;DHT22;11727;52.134;5.052;2022-09-12T13:01:20;25.00;99.90
23116;DHT22;11727;52.134;5.052;2022-09-12T13:04:02;25.00;99.90
23116;DHT22;11727;52.134;5.052;2022-09-12T13:06:53;25.10;99.90
23116;DHT22;11727;52.134;5.052;2022-09-12T13:09:43;25.20;99.90
23116;DHT22;11727;52.134;5.052;2022-09-12T13:12:34;25.30;99.90
23116;DHT22;11727;52.134;5.052;2022-09-12T13:14:59;25.30;99.90
23116;DHT22;11727;52.134;5.052;2022-09-12T13:20:00;25.40;99.90
23116;DHT22;11727;52.134;5.052;2022-09-12T13:22:41;25.30;99.90
23116;DHT22;11727;52.134;5.052;2022-09-12T13:25:30;25.40;99.90
23116;DHT22;11727;52.134;5.052;2022-09-12T13:30:23;25.30;99.90
23116;DHT22;11727;52.134;5.052;2022-09-12T13:32:48;25.30;99.90
23116;DHT22;11727;52.134;5.052;2022-09-12T13:35:41;25.20;99.90
23116;DHT22;11727;52.134;5.052;2022-09-12T13:43:52;25.00;99.90
23116;DHT22;11727;52.134;5.052;2022-09-12T13:46:29;25.00;99.90
23116;DHT22;11727;52.134;5.052;2022-09-12T13:49:00;25.00;99.90
23116;DHT22;11727;52.134;5.052;2022-09-12T13:51:30;24.90;99.90
23116;DHT22;11727;52.134;5.052;2022-09-12T13:53:59;25.00;99.90
23116;DHT22;11727;52.134;5.052;2022-09-12T13:56:27;25.00;99.90
23116;DHT22;11727;52.134;5.052;2022-09-12T13:58:58;25.10;99.90
23116;DHT22;11727;52.134;5.052;2022-09-12T14:01:39;25.20;99.90
23116;DHT22;11727;52.134;5.052;2022-09-12T14:04:20;25.30;99.90
23116;DHT22;11727;52.134;5.052;2022-09-12T14:07:20;25.40;99.90
23116;DHT22;11727;52.134;5.052;2022-09-12T14:09:55;25.40;99.90
23116;DHT22;11727;52.134;5.052;2022-09-12T14:12:27;25.30;99.90
23116;DHT22;11727;52.134;5.052;2022-09-12T14:14:54;25.30;99.90
23116;DHT22;11727;52.134;5.052;2022-09-12T14:17:27;25.40;99.90
23116;DHT22;11727;52.134;5.052;2022-09-12T14:19:54;25.30;99.90
23116;DHT22;11727;52.134;5.052;2022-09-12T14:22:24;25.40;99.90
23116;DHT22;11727;52.134;5.052;2022-09-12T14:24:51;25.40;99.90
23116;DHT22;11727;52.134;5.052;2022-09-12T14:27:27;25.30;99.90
23116;DHT22;11727;52.134;5.052;2022-09-12T14:30:18;25.30;99.90
23116;DHT22;11727;52.134;5.052;2022-09-12T14:35:28;25.20;99.90
23116;DHT22;11727;52.134;5.052;2022-09-12T14:37:54;25.20;99.90
23116;DHT22;11727;52.134;5.052;2022-09-12T14:40:21;25.30;99.90
23116;DHT22;11727;52.134;5.052;2022-09-12T14:42:48;25.30;99.90
23116;DHT22;11727;52.134;5.052;2022-09-12T14:45:28;25.30;99.90
23116;DHT22;11727;52.134;5.052;2022-09-12T14:47:54;25.20;99.90
23116;DHT22;11727;52.134;5.052;2022-09-12T14:50:27;25.10;99.90
23116;DHT22;11727;52.134;5.052;2022-09-12T14:53:03;25.10;99.90
23116;DHT22;11727;52.134;5.052;2022-09-12T14:55:32;25.00;99.90
23116;DHT22;11727;52.134;5.052;2022-09-12T15:01:19;24.80;99.90
23116;DHT22;11727;52.134;5.052;2022-09-12T15:08:47;24.90;99.90
23116;DHT22;11727;52.134;5.052;2022-09-12T15:11:13;24.90;99.90
23116;DHT22;11727;52.134;5.052;2022-09-12T15:13:40;24.90;99.90
23116;DHT22;11727;52.134;5.052;2022-09-12T15:16:09;24.90;99.90
23116;DHT22;11727;52.134;5.052;2022-09-12T15:18:35;24.90;99.90
23116;DHT22;11727;52.134;5.052;2022-09-12T15:21:05;25.00;99.90
23116;DHT22;11727;52.134;5.052;2022-09-12T15:23:44;25.00;99.90
23116;DHT22;11727;52.134;5.052;2022-09-12T15:26:13;25.00;99.90
23116;DHT22;11727;52.134;5.052;2022-09-12T15:28:39;25.00;99.90
23116;DHT22;11727;52.134;5.052;2022-09-12T15:31:09;25.00;99.90
23116;DHT22;11727;52.134;5.052;2022-09-12T15:33:36;24.90;99.90
23116;DHT22;11727;52.134;5.052;2022-09-12T15:36:01;24.90;99.90
23116;DHT22;11727;52.134;5.052;2022-09-12T15:38:27;24.90;99.90
23116;DHT22;11727;52.134;5.052;2022-09-12T15:40:53;25.00;99.90
23116;DHT22;11727;52.134;5.052;2022-09-12T15:43:20;25.10;99.90
23116;DHT22;11727;52.134;5.052;2022-09-12T15:45:47;25.10;99.90
23116;DHT22;11727;52.134;5.052;2022-09-12T15:48:13;25.10;99.90
23116;DHT22;11727;52.134;5.052;2022-09-12T15:50:40;25.20;99.90
23116;DHT22;11727;52.134;5.052;2022-09-12T15:53:05;25.20;99.90
23116;DHT22;11727;52.134;5.052;2022-09-12T15:55:31;25.20;99.90
23116;DHT22;11727;52.134;5.052;2022-09-12T15:57:57;25.10;99.90
23116;DHT22;11727;52.134;5.052;2022-09-12T16:00:24;25.10;99.90
23116;DHT22;11727;52.134;5.052;2022-09-12T16:02:51;25.10;99.90
23116;DHT22;11727;52.134;5.052;2022-09-12T16:05:20;25.10;99.90
23116;DHT22;11727;52.134;5.052;2022-09-12T16:07:46;25.10;99.90
23116;DHT22;11727;52.134;5.052;2022-09-12T16:10:17;25.10;99.90
23116;DHT22;11727;52.134;5.052;2022-09-12T16:12:43;25.10;99.90
23116;DHT22;11727;52.134;5.052;2022-09-12T16:15:17;25.00;99.90
23116;DHT22;11727;52.134;5.052;2022-09-12T16:17:43;25.00;99.90
23116;DHT22;11727;52.134;5.052;2022-09-12T16:20:09;25.10;99.90
23116;DHT22;11727;52.134;5.052;2022-09-12T16:22:35;25.00;99.90
23116;DHT22;11727;52.134;5.052;2022-09-12T16:25:01;25.00;99.90
23116;DHT22;11727;52.134;5.052;2022-09-12T16:27:26;24.90;99.90
23116;DHT22;11727;52.134;5.052;2022-09-12T16:29:52;24.90;99.90
23116;DHT22;11727;52.134;5.052;2022-09-12T16:32:18;24.80;99.90
23116;DHT22;11727;52.134;5.052;2022-09-12T16:34:43;24.70;99.90
23116;DHT22;11727;52.134;5.052;2022-09-12T16:37:09;24.60;99.90
23116;DHT22;11727;52.134;5.052;2022-09-12T16:39:35;24.50;99.90
23116;DHT22;11727;52.134;5.052;2022-09-12T16:42:00;24.40;99.90
23116;DHT22;11727;52.134;5.052;2022-09-12T16:44:26;24.40;99.90
23116;DHT22;11727;52.134;5.052;2022-09-12T16:46:52;24.30;99.90
23116;DHT22;11727;52.134;5.052;2022-09-12T16:49:18;24.30;99.90
23116;DHT22;11727;52.134;5.052;2022-09-12T16:51:43;24.20;99.90
23116;DHT22;11727;52.134;5.052;2022-09-12T16:54:12;24.20;99.90
23116;DHT22;11727;52.134;5.052;2022-09-12T16:56:39;24.10;99.90
23116;DHT22;11727;52.134;5.052;2022-09-12T16:59:05;24.10;99.90
23116;DHT22;11727;52.134;5.052;2022-09-12T17:01:31;24.10;99.90
23116;DHT22;11727;52.134;5.052;2022-09-12T17:03:57;24.10;99.90
23116;DHT22;11727;52.134;5.052;2022-09-12T17:06:24;24.10;99.90
23116;DHT22;11727;52.134;5.052;2022-09-12T17:08:52;24.10;99.90
23116;DHT22;11727;52.134;5.052;2022-09-12T17:11:24;24.00;99.90
23116;DHT22;11727;52.134;5.052;2022-09-12T17:13:53;24.00;99.90
23116;DHT22;11727;52.134;5.052;2022-09-12T17:16:19;23.90;99.90
23116;DHT22;11727;52.134;5.052;2022-09-12T17:18:45;23.90;99.90
23116;DHT22;11727;52.134;5.052;2022-09-12T17:21:12;23.90;99.90
23116;DHT22;11727;52.134;5.052;2022-09-12T17:23:38;23.80;99.90
23116;DHT22;11727;52.134;5.052;2022-09-12T17:26:05;23.80;99.90
23116;DHT22;11727;52.134;5.052;2022-09-12T17:28:31;23.70;99.90
23116;DHT22;11727;52.134;5.052;2022-09-12T17:31:02;23.70;99.90
23116;DHT22;11727;52.134;5.052;2022-09-12T17:33:29;23.70;99.90
23116;DHT22;11727;52.134;5.052;2022-09-12T17:35:59;23.60;99.90
23116;DHT22;11727;52.134;5.052;2022-09-12T17:38:25;23.60;99.90
23116;DHT22;11727;52.134;5.052;2022-09-12T17:40:50;23.60;99.90
23116;DHT22;11727;52.134;5.052;2022-09-12T17:43:16;23.60;99.90
23116;DHT22;11727;52.134;5.052;2022-09-12T17:45:41;23.50;99.90
23116;DHT22;11727;52.134;5.052;2022-09-12T17:48:08;23.50;99.90
23116;DHT22;11727;52.134;5.052;2022-09-12T17:50:39;23.50;99.90
23116;DHT22;11727;52.134;5.052;2022-09-12T17:53:06;23.40;99.90
23116;DHT22;11727;52.134;5.052;2022-09-12T17:55:35;23.40;99.90
23116;DHT22;11727;52.134;5.052;2022-09-12T17:58:01;23.30;99.90
23116;DHT22;11727;52.134;5.052;2022-09-12T18:00:28;23.30;99.90
23116;DHT22;11727;52.134;5.052;2022-09-12T18:03:13;23.30;99.90
23116;DHT22;11727;52.134;5.052;2022-09-12T18:05:53;23.20;99.90
23116;DHT22;11727;52.134;5.052;2022-09-12T18:08:20;23.10;99.90
23116;DHT22;11727;52.134;5.052;2022-09-12T18:10:46;23.10;99.90
23116;DHT22;11727;52.134;5.052;2022-09-12T18:13:12;23.00;99.90
23116;DHT22;11727;52.134;5.052;2022-09-12T18:15:38;22.90;99.90
23116;DHT22;11727;52.134;5.052;2022-09-12T18:18:04;22.90;99.90
23116;DHT22;11727;52.134;5.052;2022-09-12T18:20:30;22.80;99.90
23116;DHT22;11727;52.134;5.052;2022-09-12T18:22:56;22.80;99.90
23116;DHT22;11727;52.134;5.052;2022-09-12T18:25:22;22.70;99.90